Time;durP1;ratioP1;P1;durP2;ratioP2;P2;SDS_P1;SDS_P2;PMS_P1;PMS_P2;Temp;Humidity;BMP_temperature;BMP_pressure;BME280_temperature;BME280_humidity;BME280_pressure;Samples;Min_cycle;Max_cycle;Signal;HPM_P1;HPM_P2
2022/06/18 00:01:45;;;;;;;2.33;1.60;;;25.80;48.20;;;;;;5073360;28;20471;-71
2022/06/18 00:04:14;;;;;;;2.90;1.70;;;25.90;47.70;;;;;;5073158;28;20455;-71
2022/06/18 00:06:51;;;;;;;2.57;2.03;;;25.80;47.90;;;;;;5073485;28;20441;-70
2022/06/18 00:09:21;;;;;;;8.43;1.93;;;25.80;48.00;;;;;;5073462;28;20448;-71
2022/06/18 00:14:33;;;;;;;3.73;2.27;;;25.90;48.20;;;;;;5073736;28;20885;-71
2022/06/18 00:17:02;;;;;;;8.97;2.70;;;25.90;48.20;;;;;;5073455;28;20424;-71
2022/06/18 00:19:28;;;;;;;4.27;2.40;;;25.80;48.20;;;;;;5073214;28;20449;-71
2022/06/18 00:21:55;;;;;;;3.00;2.30;;;25.80;48.10;;;;;;5074775;28;20503;-71
2022/06/18 00:24:23;;;;;;;3.37;2.00;;;25.80;48.20;;;;;;5076805;28;20937;-71
2022/06/18 00:26:50;;;;;;;4.23;2.00;;;25.70;48.00;;;;;;5077054;28;20475;-71
2022/06/18 00:29:19;;;;;;;2.37;2.17;;;25.70;48.40;;;;;;5077106;28;20444;-71
2022/06/18 00:31:46;;;;;;;4.53;2.23;;;25.60;48.50;;;;;;5076960;28;20811;-71
2022/06/18 00:34:14;;;;;;;7.80;2.90;;;25.60;48.50;;;;;;5076903;28;20448;-71
2022/06/18 00:36:43;;;;;;;3.23;2.40;;;25.60;48.60;;;;;;5076925;28;20535;-70
2022/06/18 00:39:13;;;;;;;5.10;1.80;;;25.60;48.50;;;;;;5076467;28;20809;-71
2022/06/18 00:41:42;;;;;;;3.90;1.93;;;25.60;48.50;;;;;;5076232;28;21023;-71
2022/06/18 00:44:19;;;;;;;7.30;2.30;;;25.60;48.80;;;;;;5076634;28;20506;-71
2022/06/18 00:46:57;;;;;;;7.23;2.03;;;25.60;48.80;;;;;;5076734;28;20441;-71
2022/06/18 00:49:30;;;;;;;2.43;2.00;;;25.60;48.90;;;;;;5076746;28;20424;-71
2022/06/18 00:52:05;;;;;;;4.50;2.20;;;25.60;48.70;;;;;;5076519;28;20551;-71
2022/06/18 00:54:35;;;;;;;3.00;2.00;;;25.60;48.60;;;;;;5076381;28;20462;-71
2022/06/18 00:57:09;;;;;;;5.67;2.20;;;25.60;48.60;;;;;;5076281;28;20433;-71
2022/06/18 00:59:42;;;;;;;4.00;2.30;;;25.60;48.40;;;;;;5076193;28;20436;-71
2022/06/18 01:02:14;;;;;;;5.63;1.73;;;25.60;48.10;;;;;;5076261;28;20480;-71
2022/06/18 01:04:42;;;;;;;3.10;2.17;;;25.60;48.10;;;;;;5076131;28;20921;-71
2022/06/18 01:07:20;;;;;;;10.43;2.20;;;25.60;48.00;;;;;;5075964;28;20961;-71
2022/06/18 01:09:50;;;;;;;5.77;2.33;;;25.60;47.90;;;;;;5076164;28;20520;-71
2022/06/18 01:12:17;;;;;;;8.13;2.40;;;25.60;47.60;;;;;;5076284;28;20468;-71
2022/06/18 01:14:45;;;;;;;5.03;2.40;;;25.60;47.50;;;;;;5076621;28;20506;-72
2022/06/18 01:17:12;;;;;;;11.60;2.60;;;25.60;47.50;;;;;;5076183;28;20437;-73
2022/06/18 01:19:44;;;;;;;13.57;2.47;;;25.60;47.10;;;;;;5075793;28;20953;-73
2022/06/18 01:22:27;;;;;;;7.60;2.30;;;25.60;47.40;;;;;;5075942;28;20513;-71
2022/06/18 01:24:57;;;;;;;5.80;1.97;;;25.50;47.30;;;;;;5076299;28;20431;-71
2022/06/18 01:27:24;;;;;;;8.80;2.87;;;25.50;47.50;;;;;;5076828;28;20455;-71
2022/06/18 01:29:51;;;;;;;7.73;2.30;;;25.60;47.40;;;;;;5075872;28;20444;-71
2022/06/18 01:32:18;;;;;;;8.77;2.73;;;25.50;47.60;;;;;;5075874;28;20557;-71
2022/06/18 01:34:47;;;;;;;5.77;2.20;;;25.60;47.40;;;;;;5075042;28;20456;-71
2022/06/18 01:37:14;;;;;;;13.00;2.33;;;25.50;46.50;;;;;;5075910;28;20453;-71
2022/06/18 01:39:43;;;;;;;10.70;2.50;;;25.50;47.10;;;;;;5075872;28;20452;-71
2022/06/18 01:42:15;;;;;;;5.27;2.40;;;25.50;47.00;;;;;;5075900;28;20864;-71
2022/06/18 01:44:46;;;;;;;10.63;2.47;;;25.50;47.10;;;;;;5076610;28;20443;-71
2022/06/18 01:47:16;;;;;;;6.07;2.50;;;25.50;47.70;;;;;;5076774;28;20921;-71
2022/06/18 01:49:49;;;;;;;9.70;2.60;;;25.50;47.60;;;;;;5077545;28;20522;-71
2022/06/18 01:52:19;;;;;;;8.43;2.83;;;25.40;47.50;;;;;;5078192;28;20503;-71
2022/06/18 01:54:50;;;;;;;9.80;3.23;;;25.50;47.90;;;;;;5074787;28;20476;-71
2022/06/18 01:57:22;;;;;;;7.87;2.27;;;25.40;47.70;;;;;;5075511;28;20444;-71
2022/06/18 01:59:53;;;;;;;9.20;2.30;;;25.40;48.10;;;;;;5075517;28;20429;-71
2022/06/18 02:02:20;;;;;;;9.13;2.20;;;25.40;47.70;;;;;;5075178;28;20491;-71
2022/06/18 02:04:47;;;;;;;4.63;1.93;;;25.40;47.70;;;;;;5075374;28;20444;-71
2022/06/18 02:07:17;;;;;;;8.77;2.20;;;25.40;47.70;;;;;;5075348;28;20444;-71
2022/06/18 02:09:48;;;;;;;7.00;2.23;;;25.30;47.70;;;;;;5075177;28;20448;-71
2022/06/18 02:12:21;;;;;;;6.20;2.03;;;25.30;47.80;;;;;;5075295;28;20465;-72
2022/06/18 02:14:52;;;;;;;4.77;1.90;;;25.20;47.90;;;;;;5075239;28;20425;-72
2022/06/18 02:17:20;;;;;;;3.00;2.20;;;25.20;47.60;;;;;;5075155;28;20449;-73
2022/06/18 02:19:51;;;;;;;5.33;2.20;;;25.20;48.10;;;;;;5075930;28;20448;-73
2022/06/18 02:22:19;;;;;;;12.17;2.70;;;25.20;47.80;;;;;;5074844;28;20489;-72
2022/06/18 02:24:47;;;;;;;6.10;2.43;;;25.10;48.20;;;;;;5074845;28;20453;-72
2022/06/18 02:27:15;;;;;;;4.80;1.90;;;25.10;48.10;;;;;;5074431;28;20929;-74
2022/06/18 02:29:46;;;;;;;8.20;2.47;;;25.10;48.20;;;;;;5074863;28;20453;-74
2022/06/18 02:32:23;;;;;;;4.87;2.23;;;25.10;48.30;;;;;;5074625;28;20465;-72
2022/06/18 02:34:50;;;;;;;6.57;2.03;;;25.10;48.70;;;;;;5074614;28;20433;-73
2022/06/18 02:37:24;;;;;;;8.50;2.40;;;25.10;49.30;;;;;;5074314;28;20822;-73
2022/06/18 02:39:57;;;;;;;4.37;1.60;;;25.00;49.80;;;;;;5074566;28;20774;-73
2022/06/18 02:42:25;;;;;;;4.87;2.23;;;25.00;49.80;;;;;;5074388;28;20485;-72
2022/06/18 02:44:53;;;;;;;9.00;2.50;;;25.00;50.10;;;;;;5074093;28;20456;-73
2022/06/18 02:47:21;;;;;;;7.70;2.13;;;24.90;50.40;;;;;;5074468;28;20441;-73
2022/06/18 02:49:54;;;;;;;4.90;2.60;;;24.90;50.40;;;;;;5074527;28;20449;-74
2022/06/18 02:52:23;;;;;;;9.73;2.60;;;24.80;50.50;;;;;;5074341;28;20464;-72
2022/06/18 02:54:50;;;;;;;7.83;2.40;;;24.70;51.00;;;;;;5074129;28;20468;-73
2022/06/18 02:57:24;;;;;;;5.70;2.27;;;24.70;51.40;;;;;;5074355;28;20440;-73
2022/06/18 02:59:53;;;;;;;4.00;1.80;;;24.70;51.60;;;;;;5074500;28;20432;-72
2022/06/18 03:02:19;;;;;;;4.93;2.07;;;24.60;51.80;;;;;;5074054;28;20495;-72
2022/06/18 03:04:46;;;;;;;5.50;2.97;;;24.50;52.00;;;;;;5074192;28;20449;-73
2022/06/18 03:07:13;;;;;;;6.83;2.60;;;24.50;52.30;;;;;;5074412;28;20444;-74
2022/06/18 03:12:20;;;;;;;6.63;2.17;;;24.40;52.70;;;;;;5072503;28;20440;-72
2022/06/18 03:14:47;;;;;;;3.97;2.23;;;24.30;52.80;;;;;;5074240;28;20439;-73
2022/06/18 03:17:15;;;;;;;6.17;2.30;;;24.30;53.00;;;;;;5073637;28;20859;-73
2022/06/18 03:19:46;;;;;;;5.00;1.97;;;24.30;53.10;;;;;;5073840;28;20930;-73
2022/06/18 03:22:16;;;;;;;7.13;2.03;;;24.20;53.30;;;;;;5073725;28;20494;-72
2022/06/18 03:24:43;;;;;;;6.30;2.40;;;24.20;53.60;;;;;;5073971;28;20452;-73
2022/06/18 03:27:10;;;;;;;4.23;2.17;;;24.20;53.80;;;;;;5073806;28;20445;-73
2022/06/18 03:29:37;;;;;;;2.47;2.00;;;24.20;54.10;;;;;;5073506;28;20487;-73
2022/06/18 03:32:05;;;;;;;6.50;2.27;;;24.20;54.30;;;;;;5073727;28;20457;-72
2022/06/18 03:34:33;;;;;;;6.57;2.80;;;24.10;54.30;;;;;;5073770;28;20453;-73
2022/06/18 03:37:00;;;;;;;4.07;2.50;;;24.10;54.60;;;;;;5073672;28;20455;-73
2022/06/18 03:39:27;;;;;;;3.40;2.00;;;24.10;54.70;;;;;;5073643;28;20451;-72
2022/06/18 03:41:55;;;;;;;5.20;2.60;;;24.10;55.00;;;;;;5073476;28;21022;-72
2022/06/18 03:44:24;;;;;;;7.20;2.73;;;24.10;55.50;;;;;;5073266;28;20456;-72
2022/06/18 03:46:51;;;;;;;4.47;2.17;;;24.10;55.00;;;;;;5073587;28;20463;-73
2022/06/18 03:49:25;;;;;;;5.90;2.40;;;24.10;55.10;;;;;;5073564;28;20445;-73
2022/06/18 03:51:53;;;;;;;3.60;2.33;;;24.00;55.20;;;;;;5073611;28;20437;-73
2022/06/18 03:54:20;;;;;;;1.93;1.83;;;24.00;55.40;;;;;;5073160;28;20844;-72
2022/06/18 03:56:47;;;;;;;3.57;2.40;;;24.00;55.70;;;;;;5076700;28;20448;-72
2022/06/18 03:59:14;;;;;;;6.27;2.13;;;24.00;55.80;;;;;;5080111;28;20440;-72
2022/06/18 04:01:41;;;;;;;7.90;2.80;;;24.00;55.90;;;;;;5080064;28;20495;-72
2022/06/18 04:04:08;;;;;;;3.93;2.10;;;24.00;55.90;;;;;;5079693;28;20953;-72
2022/06/18 04:06:35;;;;;;;2.67;2.33;;;24.00;55.90;;;;;;5080130;28;20448;-73
2022/06/18 04:09:03;;;;;;;4.80;2.40;;;24.00;55.90;;;;;;5080051;28;20445;-73
2022/06/18 04:11:30;;;;;;;4.57;2.43;;;24.10;55.80;;;;;;5080317;28;20472;-73
2022/06/18 04:13:58;;;;;;;6.63;2.60;;;24.10;55.20;;;;;;5080013;28;20469;-72
2022/06/18 04:16:25;;;;;;;8.13;2.23;;;24.10;54.50;;;;;;5080088;28;20444;-72
2022/06/18 04:18:51;;;;;;;2.97;2.13;;;24.10;54.10;;;;;;5080131;28;20503;-72
2022/06/18 04:21:18;;;;;;;7.80;2.40;;;24.20;54.30;;;;;;5080066;28;20487;-72
2022/06/18 04:23:45;;;;;;;2.50;2.30;;;24.20;54.50;;;;;;5080090;28;20475;-73
2022/06/18 04:26:14;;;;;;;4.23;2.10;;;24.20;55.10;;;;;;5080745;28;20440;-72
2022/06/18 04:28:41;;;;;;;5.13;2.80;;;24.20;55.30;;;;;;5081566;28;20440;-72
2022/06/18 04:31:08;;;;;;;6.23;2.13;;;24.30;55.20;;;;;;5081737;28;20452;-72
2022/06/18 04:33:35;;;;;;;7.93;2.40;;;24.30;55.30;;;;;;5081390;28;20468;-71
2022/06/18 04:36:02;;;;;;;8.97;2.47;;;24.30;54.90;;;;;;5079806;28;20444;-73
2022/06/18 04:38:29;;;;;;;3.57;1.93;;;24.30;53.80;;;;;;5079899;28;20449;-72
2022/06/18 04:40:55;;;;;;;3.63;2.30;;;24.40;53.70;;;;;;5079785;28;20459;-72
2022/06/18 04:43:24;;;;;;;7.20;2.10;;;24.40;53.60;;;;;;5079737;28;20469;-71
2022/06/18 04:45:50;;;;;;;15.13;2.77;;;24.40;53.80;;;;;;5079477;28;20471;-72
2022/06/18 04:48:17;;;;;;;7.30;2.60;;;24.50;53.90;;;;;;5079505;28;20798;-72
2022/06/18 04:50:44;;;;;;;5.93;2.30;;;24.50;53.40;;;;;;5079259;28;20933;-71
2022/06/18 04:53:12;;;;;;;5.37;2.00;;;24.50;53.80;;;;;;5079361;28;20460;-70
2022/06/18 04:55:39;;;;;;;7.00;2.67;;;24.60;54.50;;;;;;5079421;28;20482;-70
2022/06/18 04:58:06;;;;;;;10.03;2.63;;;24.60;54.30;;;;;;5079562;28;20440;-71
2022/06/18 05:00:34;;;;;;;13.37;2.47;;;24.70;54.40;;;;;;5079233;28;20933;-71
2022/06/18 05:03:01;;;;;;;10.57;2.80;;;24.70;54.10;;;;;;5079133;28;20495;-71
2022/06/18 05:05:29;;;;;;;8.20;2.70;;;24.70;53.50;;;;;;5079494;28;20444;-71
2022/06/18 05:07:56;;;;;;;6.60;2.70;;;24.80;53.70;;;;;;5077223;28;20461;-71
2022/06/18 05:10:23;;;;;;;6.53;2.53;;;24.90;53.90;;;;;;5076263;28;20449;-70
2022/06/18 05:12:50;;;;;;;8.40;3.23;;;24.90;53.60;;;;;;5076149;28;20486;-70
2022/06/18 05:15:17;;;;;;;6.67;3.03;;;25.00;53.60;;;;;;5076313;28;20777;-71
2022/06/18 05:17:46;;;;;;;6.40;2.97;;;25.00;53.70;;;;;;5076226;28;20451;-71
2022/06/18 05:20:16;;;;;;;9.13;2.37;;;25.10;53.60;;;;;;5076058;28;20535;-71
2022/06/18 05:22:42;;;;;;;10.37;4.20;;;25.10;53.90;;;;;;5075994;28;20550;-71
2022/06/18 05:25:11;;;;;;;9.30;3.20;;;25.10;53.80;;;;;;5076006;28;20448;-71
2022/06/18 05:27:38;;;;;;;12.97;3.57;;;25.10;54.10;;;;;;5075937;28;20448;-71
2022/06/18 05:30:08;;;;;;;9.33;2.83;;;25.10;54.10;;;;;;5075785;28;20946;-71
2022/06/18 05:32:35;;;;;;;5.93;2.50;;;25.20;54.60;;;;;;5076164;28;20468;-71
2022/06/18 05:35:03;;;;;;;8.30;2.60;;;25.20;54.40;;;;;;5076093;28;20452;-70
2022/06/18 05:37:32;;;;;;;5.40;2.30;;;25.30;54.40;;;;;;5076051;28;20898;-70
2022/06/18 05:39:59;;;;;;;7.00;2.67;;;25.40;54.20;;;;;;5076125;28;20448;-70
2022/06/18 05:42:26;;;;;;;5.00;2.23;;;25.40;54.10;;;;;;5075509;28;20590;-71
2022/06/18 05:44:54;;;;;;;3.33;2.00;;;25.50;54.20;;;;;;5076648;28;20455;-71
2022/06/18 05:47:22;;;;;;;7.17;2.27;;;25.50;53.90;;;;;;5075612;28;20444;-71
2022/06/18 05:49:50;;;;;;;5.10;2.63;;;25.60;54.00;;;;;;5075753;28;20452;-71
2022/06/18 05:52:19;;;;;;;5.70;2.30;;;25.70;53.90;;;;;;5075595;28;20490;-71
2022/06/18 05:54:47;;;;;;;11.57;3.13;;;25.70;54.00;;;;;;5075143;28;20946;-71
2022/06/18 05:57:14;;;;;;;8.10;2.60;;;25.80;54.30;;;;;;5075471;28;20457;-71
2022/06/18 05:59:41;;;;;;;5.97;3.03;;;25.90;54.30;;;;;;5075405;28;20447;-71
2022/06/18 06:02:11;;;;;;;5.20;2.58;;;25.90;53.90;;;;;;5074256;28;20453;-70
2022/06/18 06:04:39;;;;;;;7.00;2.63;;;26.00;53.50;;;;;;5075282;28;20210;-70
2022/06/18 06:07:06;;;;;;;3.30;2.03;;;26.10;53.00;;;;;;5074922;28;20444;-70
2022/06/18 06:12:18;;;;;;;7.00;2.63;;;26.30;51.60;;;;;;5074783;28;20443;-71
2022/06/18 06:14:45;;;;;;;5.17;2.57;;;26.30;51.90;;;;;;5075109;28;20445;-71
2022/06/18 06:17:14;;;;;;;9.10;2.90;;;26.40;51.80;;;;;;5075001;28;20531;-71
2022/06/18 06:19:42;;;;;;;4.53;2.40;;;26.40;51.20;;;;;;5074619;28;20480;-71
2022/06/18 06:22:09;;;;;;;4.80;2.33;;;26.50;50.90;;;;;;5074666;28;20492;-71
2022/06/18 06:24:37;;;;;;;5.93;2.40;;;26.60;51.50;;;;;;5074980;28;20440;-70
2022/06/18 06:27:04;;;;;;;4.73;3.40;;;26.70;51.10;;;;;;5074774;28;20445;-70
2022/06/18 06:29:32;;;;;;;3.70;2.40;;;26.80;50.70;;;;;;5074367;28;20789;-70
2022/06/18 06:31:58;;;;;;;6.93;3.33;;;26.80;51.40;;;;;;5074386;28;20453;-70
2022/06/18 06:34:25;;;;;;;3.77;2.47;;;26.90;51.00;;;;;;5074385;28;20945;-70
2022/06/18 06:36:52;;;;;;;7.93;3.20;;;27.00;50.80;;;;;;5074605;28;20502;-71
2022/06/18 06:39:19;;;;;;;9.17;3.00;;;27.10;50.50;;;;;;5074485;28;20820;-71
2022/06/18 06:41:47;;;;;;;6.60;2.60;;;27.30;49.30;;;;;;5074426;28;20444;-71
2022/06/18 06:44:14;;;;;;;6.83;2.50;;;27.40;49.80;;;;;;5074503;28;20443;-71
2022/06/18 06:46:41;;;;;;;4.97;3.03;;;27.40;49.80;;;;;;5074405;28;20444;-71
2022/06/18 06:49:08;;;;;;;5.03;2.27;;;27.50;50.10;;;;;;5074264;28;20792;-71
2022/06/18 06:51:38;;;;;;;3.67;2.37;;;27.60;49.20;;;;;;5074321;28;20464;-71
2022/06/18 06:54:06;;;;;;;6.37;2.57;;;27.60;48.50;;;;;;5073895;28;20927;-71
2022/06/18 06:59:18;;;;;;;3.33;2.67;;;27.80;49.20;;;;;;5074346;28;20524;-71
2022/06/18 07:01:45;;;;;;;7.00;2.93;;;27.80;48.10;;;;;;5073877;28;20452;-71
2022/06/18 07:04:13;;;;;;;11.53;3.07;;;27.90;48.30;;;;;;5074381;28;20930;-71
2022/06/18 07:06:41;;;;;;;5.53;3.10;;;28.00;47.40;;;;;;5074821;28;20528;-71
2022/06/18 07:09:08;;;;;;;10.17;3.17;;;28.10;48.00;;;;;;5076639;28;20437;-71
2022/06/18 07:11:37;;;;;;;6.67;3.20;;;28.20;47.50;;;;;;5076393;28;20456;-71
2022/06/18 07:14:03;;;;;;;7.57;3.40;;;28.30;47.80;;;;;;5076915;28;20510;-71
2022/06/18 07:16:31;;;;;;;4.53;2.80;;;28.30;47.00;;;;;;5073922;28;20437;-70
2022/06/18 07:18:58;;;;;;;5.70;2.40;;;28.40;47.50;;;;;;5073940;28;20429;-71
2022/06/18 07:21:25;;;;;;;6.17;3.17;;;28.50;47.10;;;;;;5073887;28;20455;-71
2022/06/18 07:23:52;;;;;;;6.50;3.17;;;28.60;48.00;;;;;;5073732;28;20491;-71
2022/06/18 07:26:22;;;;;;;3.23;2.50;;;28.70;46.70;;;;;;5073521;28;20431;-71
2022/06/18 07:28:49;;;;;;;5.80;2.90;;;28.80;48.60;;;;;;5073715;28;20425;-71
2022/06/18 07:31:23;;;;;;;8.27;2.90;;;28.90;46.80;;;;;;5072946;28;20455;-71
2022/06/18 07:33:51;;;;;;;7.13;3.00;;;29.00;47.80;;;;;;5073281;28;21027;-72
2022/06/18 07:36:19;;;;;;;6.03;2.80;;;29.10;46.40;;;;;;5073671;28;20528;-72
2022/06/18 07:38:46;;;;;;;8.30;2.93;;;29.10;46.50;;;;;;5073714;28;20453;-71
2022/06/18 07:41:16;;;;;;;6.40;2.70;;;29.20;45.90;;;;;;5073740;28;20518;-71
2022/06/18 07:43:47;;;;;;;12.27;3.20;;;29.30;45.90;;;;;;5073508;28;20573;-72
2022/06/18 07:46:13;;;;;;;5.30;3.10;;;29.40;46.70;;;;;;5073694;28;20436;-71
2022/06/18 07:48:41;;;;;;;7.97;3.00;;;29.50;44.40;;;;;;5073555;28;20448;-71
2022/06/18 07:51:09;;;;;;;4.00;2.60;;;29.60;44.60;;;;;;5073453;28;20460;-72
2022/06/18 07:53:36;;;;;;;6.17;3.33;;;29.60;44.40;;;;;;5072982;28;20487;-72
2022/06/18 07:56:05;;;;;;;9.63;3.23;;;29.60;45.20;;;;;;5073510;28;20437;-71
2022/06/18 07:58:31;;;;;;;4.27;3.33;;;29.80;44.20;;;;;;5073056;28;20938;-72
2022/06/18 08:00:59;;;;;;;5.73;3.50;;;29.80;44.60;;;;;;5073403;28;20467;-71
2022/06/18 08:03:26;;;;;;;9.67;3.20;;;30.00;43.80;;;;;;5073341;28;20492;-72
2022/06/18 08:05:54;;;;;;;6.97;3.40;;;30.10;43.90;;;;;;5073522;28;20433;-72
2022/06/18 08:08:23;;;;;;;4.90;3.00;;;30.30;42.40;;;;;;5073628;28;20515;-71
2022/06/18 08:10:51;;;;;;;5.20;2.93;;;30.30;43.20;;;;;;5073088;28;20801;-72
2022/06/18 08:13:19;;;;;;;7.10;3.00;;;30.40;43.00;;;;;;5073353;28;20468;-71
2022/06/18 08:15:46;;;;;;;5.50;2.50;;;30.60;43.50;;;;;;5073601;28;20482;-72
2022/06/18 08:18:13;;;;;;;4.70;2.43;;;30.70;43.10;;;;;;5073652;28;20808;-72
2022/06/18 08:20:42;;;;;;;9.10;3.23;;;30.90;42.20;;;;;;5073683;28;20436;-72
2022/06/18 08:23:09;;;;;;;9.73;3.37;;;30.90;41.40;;;;;;5073292;28;20480;-72
2022/06/18 08:25:41;;;;;;;5.57;3.00;;;31.00;41.30;;;;;;5073262;28;20447;-72
2022/06/18 08:28:10;;;;;;;4.70;3.30;;;31.10;40.00;;;;;;5073203;28;20439;-71
2022/06/18 08:30:37;;;;;;;6.23;3.60;;;31.20;40.20;;;;;;5073417;28;20460;-72
2022/06/18 08:33:04;;;;;;;6.80;2.87;;;31.30;40.30;;;;;;5072728;28;20471;-72
2022/06/18 08:35:32;;;;;;;4.80;3.00;;;31.50;39.20;;;;;;5072845;28;20556;-72
2022/06/18 08:37:58;;;;;;;8.33;3.63;;;31.60;39.10;;;;;;5073033;28;20441;-72
2022/06/18 08:40:45;;;;;;;5.10;3.20;;;31.70;39.20;;;;;;5073026;28;20435;-72
2022/06/18 08:43:28;;;;;;;7.63;2.80;;;31.90;39.30;;;;;;5074804;28;20486;-72
2022/06/18 08:46:03;;;;;;;8.57;3.03;;;32.00;38.80;;;;;;5076515;28;20431;-72
2022/06/18 08:49:06;;;;;;;8.07;3.63;;;32.30;39.60;;;;;;5076832;28;20454;-72
2022/06/18 08:51:43;;;;;;;7.30;3.50;;;32.50;38.90;;;;;;5076596;28;20466;-72
2022/06/18 08:54:24;;;;;;;7.27;3.47;;;32.70;39.90;;;;;;5076573;28;20446;-72
2022/06/18 08:57:00;;;;;;;4.90;3.57;;;32.90;38.80;;;;;;5076625;28;20430;-72
2022/06/18 08:59:37;;;;;;;10.90;3.60;;;33.00;38.30;;;;;;5076490;28;20420;-71
2022/06/18 09:02:14;;;;;;;6.53;3.67;;;33.20;38.50;;;;;;5076448;28;20473;-72
2022/06/18 09:04:49;;;;;;;7.23;3.70;;;33.40;38.90;;;;;;5076576;28;20833;-72
2022/06/18 09:07:43;;;;;;;10.73;3.20;;;33.50;36.70;;;;;;5076541;28;20454;-72
2022/06/18 09:10:22;;;;;;;13.27;3.60;;;33.70;35.90;;;;;;5076498;28;20440;-72
2022/06/18 09:12:55;;;;;;;7.03;3.63;;;33.90;35.80;;;;;;5076185;28;20502;-72
2022/06/18 09:15:29;;;;;;;7.50;3.80;;;34.10;35.60;;;;;;5077288;28;20440;-72
2022/06/18 09:18:02;;;;;;;7.60;3.97;;;34.40;34.70;;;;;;5076368;28;20490;-72
2022/06/18 09:20:35;;;;;;;4.03;3.17;;;34.70;33.10;;;;;;5076280;28;20431;-71
2022/06/18 09:23:09;;;;;;;9.83;4.10;;;34.90;33.00;;;;;;5076026;28;21015;-72
2022/06/18 09:25:41;;;;;;;7.47;4.17;;;35.00;32.20;;;;;;5076248;28;20436;-73
2022/06/18 09:28:16;;;;;;;7.37;3.50;;;35.10;32.10;;;;;;5076032;28;20432;-72
2022/06/18 09:30:46;;;;;;;6.33;3.00;;;35.20;31.70;;;;;;5075982;28;20530;-72
2022/06/18 09:33:18;;;;;;;12.30;3.40;;;35.30;31.80;;;;;;5075997;28;20471;-73
2022/06/18 09:35:51;;;;;;;12.53;3.97;;;35.30;30.40;;;;;;5075847;28;20436;-72
2022/06/18 09:38:24;;;;;;;9.77;4.10;;;35.20;32.20;;;;;;5075936;28;20435;-72
2022/06/18 09:40:53;;;;;;;7.00;3.50;;;35.20;33.00;;;;;;5075931;28;20443;-72
2022/06/18 09:43:31;;;;;;;8.00;3.67;;;35.30;33.40;;;;;;5075453;28;20659;-72
2022/06/18 09:46:03;;;;;;;9.17;3.70;;;35.50;32.00;;;;;;5075993;28;20434;-72
2022/06/18 09:48:30;;;;;;;3.97;3.47;;;35.70;30.70;;;;;;5076748;28;20437;-72
2022/06/18 09:51:00;;;;;;;8.47;3.70;;;35.80;30.00;;;;;;5077736;28;20448;-72
2022/06/18 09:53:31;;;;;;;9.30;3.87;;;35.80;29.80;;;;;;5078992;28;20476;-72
2022/06/18 09:56:02;;;;;;;12.07;3.50;;;35.90;30.10;;;;;;5078154;28;20817;-72
2022/06/18 09:58:34;;;;;;;11.80;3.00;;;36.10;31.80;;;;;;5075511;28;20432;-72
2022/06/18 10:01:02;;;;;;;10.70;3.83;;;36.30;31.60;;;;;;5076143;28;20429;-72
2022/06/18 10:09:07;;;;;;;11.90;4.10;;;37.00;29.70;;;;;;5075334;28;20177;-71
2022/06/18 10:11:34;;;;;;;7.03;3.90;;;37.30;29.00;;;;;;5074822;28;20209;-73
2022/06/18 10:14:10;;;;;;;5.93;3.20;;;37.30;28.80;;;;;;5074932;28;20252;-73
2022/06/18 10:16:48;;;;;;;6.57;4.20;;;37.40;28.90;;;;;;5075181;28;20223;-72
2022/06/18 10:19:25;;;;;;;6.20;3.47;;;37.40;29.00;;;;;;5074815;28;20631;-73
2022/06/18 10:21:58;;;;;;;5.90;3.77;;;37.40;28.60;;;;;;5074557;28;20635;-71
2022/06/18 10:24:34;;;;;;;6.33;3.37;;;37.60;27.70;;;;;;5074858;28;20221;-71
2022/06/18 10:27:10;;;;;;;5.80;3.23;;;37.90;29.30;;;;;;5074910;28;20189;-71
2022/06/18 10:29:46;;;;;;;13.73;3.90;;;37.80;28.90;;;;;;5074774;28;20186;-71
2022/06/18 10:32:25;;;;;;;7.40;3.38;;;38.00;29.10;;;;;;5074757;28;20221;-72
2022/06/18 10:35:06;;;;;;;6.22;3.33;;;38.10;27.70;;;;;;5074717;28;20182;-72
2022/06/18 10:37:42;;;;;;;5.05;3.38;;;38.40;28.80;;;;;;5074677;28;20190;-72
2022/06/18 10:40:19;;;;;;;6.68;3.38;;;38.80;28.70;;;;;;5074666;28;20205;-71
2022/06/18 10:43:02;;;;;;;7.65;3.88;;;39.10;27.10;;;;;;5074450;28;20225;-71
2022/06/18 10:45:42;;;;;;;8.07;3.58;;;39.40;27.10;;;;;;5074263;28;20240;-70
2022/06/18 10:48:11;;;;;;;15.07;3.78;;;39.80;25.60;;;;;;5074281;28;20640;-70
2022/06/18 10:50:44;;;;;;;9.02;3.10;;;40.10;25.30;;;;;;5074435;28;20208;-70
2022/06/18 10:53:14;;;;;;;12.35;3.78;;;40.20;25.00;;;;;;5074082;28;20224;-70
2022/06/18 10:55:41;;;;;;;8.07;3.25;;;40.30;25.00;;;;;;5074248;28;20201;-69
2022/06/18 10:58:10;;;;;;;5.20;2.83;;;40.40;24.50;;;;;;5074766;28;20207;-70
2022/06/18 11:00:39;;;;;;;6.93;3.58;;;40.80;25.30;;;;;;5074690;28;20206;-70
2022/06/18 11:03:19;;;;;;;5.05;3.05;;;41.20;25.50;;;;;;5073816;28;20691;-74
2022/06/18 11:05:47;;;;;;;9.25;3.80;;;41.50;24.30;;;;;;5073283;28;20182;-73
2022/06/18 11:08:23;;;;;;;6.15;3.53;;;41.60;23.70;;;;;;5073725;28;20682;-72
2022/06/18 11:10:54;;;;;;;10.38;3.25;;;41.90;24.70;;;;;;5074517;28;20190;-71
2022/06/18 11:13:23;;;;;;;7.32;3.38;;;42.20;23.90;;;;;;5074113;28;20222;-72
2022/06/18 11:16:04;;;;;;;8.65;3.20;;;42.40;24.10;;;;;;5074279;28;20603;-73
2022/06/18 11:18:31;;;;;;;7.25;3.33;;;42.60;22.80;;;;;;5073720;28;20190;-75
2022/06/18 11:21:01;;;;;;;9.48;3.63;;;42.70;22.50;;;;;;5074168;28;20206;-75
2022/06/18 11:23:28;;;;;;;9.57;3.80;;;42.70;23.30;;;;;;5073889;28;20230;-75
2022/06/18 11:25:58;;;;;;;8.00;3.45;;;43.10;22.40;;;;;;5073614;28;20639;-74
2022/06/18 11:28:29;;;;;;;9.63;3.70;;;43.30;22.90;;;;;;5073986;28;20206;-74
2022/06/18 11:30:58;;;;;;;13.98;4.20;;;43.40;22.60;;;;;;5073380;28;20547;-71
2022/06/18 11:33:30;;;;;;;10.43;4.00;;;43.70;22.10;;;;;;5073978;28;20221;-71
2022/06/18 11:35:58;;;;;;;5.78;3.22;;;43.70;21.50;;;;;;5073358;28;20193;-71
2022/06/18 11:38:29;;;;;;;6.05;3.38;;;43.90;22.10;;;;;;5073725;28;20224;-71
2022/06/18 11:40:57;;;;;;;6.38;3.38;;;44.10;21.40;;;;;;5073703;28;20186;-71
2022/06/18 11:43:42;;;;;;;6.90;3.90;;;44.20;21.50;;;;;;5073376;28;20230;-71
2022/06/18 11:46:14;;;;;;;5.25;3.03;;;44.20;21.30;;;;;;5073614;28;20194;-71
2022/06/18 11:48:46;;;;;;;7.45;3.58;;;44.40;21.70;;;;;;5073584;28;20189;-71
2022/06/18 11:51:21;;;;;;;6.38;3.15;;;44.60;21.20;;;;;;5073519;28;20186;-73
2022/06/18 11:53:54;;;;;;;12.75;3.78;;;44.80;20.80;;;;;;5073415;28;20283;-73
2022/06/18 11:56:26;;;;;;;7.13;3.28;;;45.10;21.60;;;;;;5073304;28;20820;-73
2022/06/18 11:58:57;;;;;;;4.55;3.20;;;45.50;21.60;;;;;;5073643;28;20190;-73
2022/06/18 12:01:30;;;;;;;5.68;3.45;;;45.90;20.90;;;;;;5073118;28;20706;-73
2022/06/18 12:04:02;;;;;;;8.13;3.33;;;46.10;20.10;;;;;;5073185;28;20601;-73
2022/06/18 12:06:38;;;;;;;7.82;3.53;;;46.00;19.70;;;;;;5073516;28;20186;-72
2022/06/18 12:09:05;;;;;;;9.40;3.95;;;45.90;19.60;;;;;;5073481;28;20182;-72
2022/06/18 12:11:48;;;;;;;10.48;3.63;;;46.10;20.60;;;;;;5073459;28;20186;-71
2022/06/18 12:14:20;;;;;;;9.00;3.03;;;46.60;19.80;;;;;;5073713;28;20182;-72
2022/06/18 12:16:56;;;;;;;7.47;3.70;;;46.70;19.10;;;;;;5073758;28;20182;-71
2022/06/18 12:19:30;;;;;;;4.03;3.08;;;46.80;19.50;;;;;;5077631;28;20186;-72
2022/06/18 12:22:02;;;;;;;8.55;3.33;;;46.80;19.00;;;;;;5077708;28;20598;-72
2022/06/18 12:24:38;;;;;;;5.40;3.28;;;46.80;19.50;;;;;;5077865;28;20213;-71
2022/06/18 12:27:11;;;;;;;11.38;3.15;;;47.00;19.30;;;;;;5078121;28;20192;-71
2022/06/18 12:29:50;;;;;;;8.48;4.07;;;47.00;18.50;;;;;;5078266;28;20186;-72
2022/06/18 12:32:29;;;;;;;8.18;3.60;;;47.00;18.90;;;;;;5079329;28;20228;-72
2022/06/18 12:35:06;;;;;;;8.73;3.30;;;47.20;19.70;;;;;;5079914;28;20193;-71
2022/06/18 12:37:44;;;;;;;10.63;3.53;;;47.50;19.80;;;;;;5077852;28;20186;-72
2022/06/18 12:40:18;;;;;;;10.68;3.55;;;47.80;19.20;;;;;;5077104;28;20639;-71
2022/06/18 12:42:52;;;;;;;7.40;3.15;;;48.20;18.50;;;;;;5076887;28;20221;-72
2022/06/18 12:45:28;;;;;;;8.05;3.20;;;48.70;18.80;;;;;;5076894;28;20218;-72
2022/06/18 12:48:05;;;;;;;7.28;3.17;;;49.00;16.90;;;;;;5076498;28;20576;-72
2022/06/18 12:50:43;;;;;;;4.25;2.67;;;49.30;17.60;;;;;;5076751;28;20189;-73
2022/06/18 12:53:23;;;;;;;11.45;3.28;;;49.50;16.40;;;;;;5076689;28;20236;-73
2022/06/18 12:55:57;;;;;;;8.98;3.35;;;49.60;16.00;;;;;;5076385;28;20182;-73
2022/06/18 12:58:36;;;;;;;6.82;3.05;;;50.00;16.30;;;;;;5076595;28;20193;-73
2022/06/18 13:01:08;;;;;;;6.25;3.28;;;50.20;16.60;;;;;;5076505;28;20185;-73
2022/06/18 13:04:11;;;;;;;8.90;3.30;;;50.30;16.40;;;;;;5076256;28;20225;-73
2022/06/18 13:06:48;;;;;;;5.90;3.63;;;50.40;16.40;;;;;;5076397;28;20185;-73
2022/06/18 13:09:24;;;;;;;9.05;2.70;;;50.40;15.80;;;;;;5076387;28;20190;-73
2022/06/18 13:12:02;;;;;;;6.90;3.30;;;50.50;16.30;;;;;;5076183;28;20190;-73
2022/06/18 13:14:49;;;;;;;8.90;3.38;;;50.60;16.60;;;;;;5076271;28;20182;-73
2022/06/18 13:17:20;;;;;;;6.65;3.17;;;50.70;16.50;;;;;;5076227;28;20186;-73
2022/06/18 13:19:53;;;;;;;5.97;3.20;;;50.90;16.90;;;;;;5075998;28;20197;-73